| time (UTC) | temp F | wind direction | speed MPH | gust MPH | rain 1hr in | rain 24hr in | rain mn in | humidity % | barometer mb |
| 20260507235006 | 64 | 18 | 5.0 | 10.0 | 0.00 | 0.10 | 0.08 | 87 | 1018.1 |
| 20260507234505 | 64 | 22 | 3.0 | 14.0 | 0.00 | 0.10 | 0.08 | 89 | 1018.1 |
| 20260507234006 | 64 | 36 | 5.0 | 14.0 | 0.00 | 0.10 | 0.08 | 89 | 1018.2 |
| 20260507233006 | 64 | 15 | 2.0 | 7.0 | 0.00 | 0.10 | 0.08 | 90 | 1018.4 |
| 20260507232505 | 64 | 21 | 3.0 | 7.0 | 0.02 | 0.10 | 0.08 | 90 | 1018.3 |
| 20260507232006 | 63 | 15 | 3.0 | 7.0 | 0.02 | 0.10 | 0.08 | 90 | 1018.6 |
| 20260507231506 | 63 | 9 | 3.0 | 6.0 | 0.02 | 0.10 | 0.08 | 91 | 1018.7 |
| 20260507231005 | 63 | 13 | 2.0 | 10.0 | 0.02 | 0.10 | 0.08 | 91 | 1018.7 |
| 20260507230006 | 62 | 37 | 2.0 | 8.0 | 0.02 | 0.10 | 0.08 | 92 | 1018.6 |
| 20260507225505 | 62 | 19 | 3.0 | 10.0 | 0.02 | 0.10 | 0.08 | 91 | 1018.7 |
| 20260507225005 | 62 | 29 | 5.0 | 12.0 | 0.02 | 0.10 | 0.08 | 92 | 1018.8 |
| 20260507224506 | 62 | 10 | 5.0 | 12.0 | 0.02 | 0.10 | 0.08 | 93 | 1018.9 |
| 20260507224006 | 62 | 6 | 4.0 | 12.0 | 0.02 | 0.10 | 0.08 | 92 | 1018.9 |
| 20260507223505 | 63 | 355 | 2.0 | 12.0 | 0.02 | 0.10 | 0.08 | 91 | 1018.9 |
| 20260507223006 | 63 | 330 | 4.0 | 13.0 | 0.02 | 0.10 | 0.08 | 89 | 1018.9 |
| 20260507222505 | 64 | 5 | 6.0 | 13.0 | 0.00 | 0.08 | 0.06 | 87 | 1018.7 |
| 20260507221505 | 65 | 36 | 3.0 | 12.0 | 0.00 | 0.08 | 0.06 | 86 | 1018.7 |
| 20260507220005 | 65 | 33 | 3.0 | 12.0 | 0.00 | 0.08 | 0.06 | 86 | 1018.9 |
| 20260507215505 | 65 | 21 | 4.0 | 12.0 | 0.00 | 0.08 | 0.06 | 86 | 1019.0 |
| 20260507215006 | 65 | 20 | 3.0 | 10.0 | 0.00 | 0.08 | 0.06 | 87 | 1019.1 |
| 20260507214506 | 65 | 7 | 2.0 | 10.0 | 0.00 | 0.08 | 0.06 | 88 | 1019.1 |
| 20260507214006 | 65 | 30 | 4.0 | 10.0 | 0.00 | 0.08 | 0.06 | 88 | 1019.1 |
| 20260507213005 | 64 | 31 | 2.0 | 12.0 | 0.00 | 0.08 | 0.06 | 90 | 1019.1 |
| 20260507212505 | 64 | 31 | 3.0 | 12.0 | 0.00 | 0.08 | 0.06 | 89 | 1019.1 |
| 20260507212006 | 64 | 34 | 1.0 | 10.0 | 0.00 | 0.08 | 0.06 | 89 | 1019.1 |
| 20260507211506 | 65 | 9 | 3.0 | 10.0 | 0.00 | 0.08 | 0.06 | 87 | 1019.1 |
| 20260507211005 | 65 | 13 | 3.0 | 10.0 | 0.00 | 0.08 | 0.06 | 87 | 1018.9 |
| 20260507210006 | 65 | 58 | 1.0 | 10.0 | 0.00 | 0.08 | 0.06 | 88 | 1019.1 |
| 20260507205505 | 65 | 22 | 2.0 | 10.0 | 0.00 | 0.08 | 0.06 | 87 | 1019.2 |
| 20260507204505 | 64 | 10 | 2.0 | 9.0 | 0.00 | 0.08 | 0.06 | 90 | 1019.2 |
| 20260507204005 | 63 | 14 | 2.0 | 9.0 | 0.00 | 0.08 | 0.06 | 91 | 1019.4 |
| 20260507203005 | 61 | 47 | 1.0 | 3.0 | 0.00 | 0.08 | 0.06 | 91 | 1019.3 |
| 20260507202505 | 61 | 26 | 1.0 | 3.0 | 0.00 | 0.08 | 0.06 | 91 | 1019.3 |
| 20260507202005 | 61 | 33 | 1.0 | 5.0 | 0.00 | 0.08 | 0.06 | 90 | 1019.2 |
| 20260507201505 | 61 | 49 | 2.0 | 6.0 | 0.00 | 0.08 | 0.06 | 90 | 1019.2 |
| 20260507201005 | 61 | 35 | 1.0 | 6.0 | 0.00 | 0.09 | 0.06 | 90 | 1019.2 |
| 20260507200005 | 61 | 19 | 2.0 | 5.0 | 0.00 | 0.09 | 0.06 | 91 | 1019.2 |
| 20260507195505 | 61 | 2 | 1.0 | 5.0 | 0.00 | 0.09 | 0.06 | 92 | 1019.2 |
| 20260507195005 | 62 | 20 | 2.0 | 6.0 | 0.00 | 0.09 | 0.06 | 92 | 1019.3 |
| 20260507194505 | 62 | 32 | 3.0 | 6.0 | 0.00 | 0.09 | 0.06 | 94 | 1019.3 |
| 20260507194005 | 62 | 44 | 1.0 | 3.0 | 0.00 | 0.09 | 0.06 | 94 | 1019.3 |
| 20260507193505 | 62 | 29 | 0.0 | 5.0 | 0.00 | 0.09 | 0.06 | 94 | 1019.2 |
| 20260507193005 | 62 | 24 | 2.0 | 5.0 | 0.00 | 0.09 | 0.06 | 95 | 1019.4 |
| 20260507192006 | 61 | 19 | 1.0 | 3.0 | 0.00 | 0.09 | 0.06 | 94 | 1019.2 |
| 20260507191505 | 61 | 40 | 0.0 | 1.0 | 0.00 | 0.09 | 0.06 | 94 | 1019.2 |
| 20260507191006 | 61 | 40 | 0.0 | 1.0 | 0.00 | 0.09 | 0.06 | 94 | 1019.2 |
| 20260507190006 | 61 | 29 | 0.0 | 1.0 | 0.00 | 0.09 | 0.06 | 94 | 1019.4 |
| 20260507185505 | 61 | 38 | 0.0 | 2.0 | 0.00 | 0.09 | 0.06 | 94 | 1019.5 |
| 20260507185005 | 61 | 41 | 0.0 | 2.0 | 0.00 | 0.09 | 0.06 | 94 | 1019.5 |
| 20260507184505 | 62 | 10 | 0.0 | 2.0 | 0.00 | 0.09 | 0.06 | 94 | 1019.7 |
| 20260507184005 | 62 | 10 | 0.0 | 3.0 | 0.00 | 0.09 | 0.06 | 94 | 1019.7 |
| 20260507183505 | 62 | 12 | 1.0 | 3.0 | 0.00 | 0.09 | 0.06 | 94 | 1019.6 |
| 20260507182005 | 62 | 19 | 2.0 | 5.0 | 0.00 | 0.09 | 0.06 | 94 | 1019.7 |
| 20260507181505 | 62 | 13 | 2.0 | 5.0 | 0.00 | 0.09 | 0.06 | 94 | 1019.7 |
| 20260507181005 | 62 | 1 | 1.0 | 3.0 | 0.00 | 0.09 | 0.06 | 94 | 1019.7 |
| 20260507180005 | 62 | 29 | 1.0 | 5.0 | 0.00 | 0.09 | 0.06 | 94 | 1019.7 |
| 20260507175505 | 62 | 4 | 1.0 | 5.0 | 0.00 | 0.09 | 0.06 | 94 | 1019.7 |
| 20260507175005 | 62 | 351 | 2.0 | 5.0 | 0.00 | 0.09 | 0.06 | 94 | 1019.6 |
| 20260507174505 | 62 | 11 | 2.0 | 5.0 | 0.00 | 0.09 | 0.06 | 94 | 1019.7 |
| 20260507174005 | 62 | 357 | 2.0 | 5.0 | 0.00 | 0.09 | 0.06 | 94 | 1019.7 |
| 20260507173505 | 62 | 356 | 2.0 | 3.0 | 0.00 | 0.09 | 0.06 | 94 | 1019.7 |
| 20260507173005 | 62 | 19 | 2.0 | 3.0 | 0.01 | 0.09 | 0.06 | 94 | 1019.7 |
| 20260507172505 | 62 | 19 | 2.0 | 3.0 | 0.01 | 0.09 | 0.06 | 94 | 1019.7 |
| 20260507172005 | 62 | 2 | 2.0 | 3.0 | 0.01 | 0.09 | 0.06 | 94 | 1019.7 |
| 20260507171505 | 62 | 20 | 2.0 | 3.0 | 0.02 | 0.09 | 0.06 | 94 | 1019.7 |
| 20260507171005 | 62 | 14 | 1.0 | 3.0 | 0.04 | 0.09 | 0.06 | 95 | 1019.7 |
| 20260507170005 | 61 | 22 | 0.0 | 3.0 | 0.06 | 0.09 | 0.06 | 95 | 1019.7 |
| 20260507165505 | 61 | 37 | 1.0 | 3.0 | 0.06 | 0.10 | 0.06 | 95 | 1019.7 |
| 20260507165005 | 61 | 2 | 1.0 | 5.0 | 0.06 | 0.10 | 0.06 | 95 | 1019.7 |
| 20260507164505 | 61 | 20 | 2.0 | 5.0 | 0.06 | 0.10 | 0.06 | 95 | 1019.7 |
| 20260507164005 | 61 | 38 | 2.0 | 3.0 | 0.06 | 0.10 | 0.06 | 94 | 1019.7 |
| 20260507163005 | 61 | 9 | 1.0 | 3.0 | 0.05 | 0.09 | 0.05 | 94 | 1019.7 |
| 20260507162505 | 61 | 356 | 1.0 | 10.0 | 0.05 | 0.09 | 0.05 | 93 | 1019.8 |
| 20260507162005 | 61 | 348 | 1.0 | 10.0 | 0.05 | 0.09 | 0.05 | 93 | 1019.8 |
| 20260507161505 | 61 | 303 | 3.0 | 10.0 | 0.04 | 0.09 | 0.04 | 93 | 1019.9 |
| 20260507161006 | 61 | 332 | 1.0 | 3.0 | 0.02 | 0.06 | 0.02 | 93 | 1020.0 |
| 20260507160005 | 61 | 267 | 1.0 | 3.0 | 0.00 | 0.05 | 0.00 | 93 | 1020.0 |
| 20260507155505 | 61 | 316 | 1.0 | 3.0 | 0.00 | 0.05 | 0.00 | 93 | 1020.0 |
| 20260507155005 | 61 | 316 | 1.0 | 5.0 | 0.00 | 0.05 | 0.00 | 93 | 1020.1 |
| 20260507154505 | 61 | 342 | 3.0 | 6.0 | 0.00 | 0.05 | 0.00 | 93 | 1020.2 |
| 20260507154006 | 60 | 317 | 1.0 | 7.0 | 0.00 | 0.05 | 0.00 | 93 | 1020.2 |
| 20260507153005 | 60 | 29 | 1.0 | 2.0 | 0.00 | 0.05 | 0.00 | 93 | 1020.2 |
| 20260507152505 | 60 | 60 | 1.0 | 3.0 | 0.00 | 0.05 | 0.00 | 93 | 1020.2 |
| 20260507152005 | 60 | 358 | 0.0 | 3.0 | 0.00 | 0.05 | 0.00 | 93 | 1020.3 |
| 20260507151505 | 60 | 44 | 0.0 | 1.0 | 0.00 | 0.05 | 0.00 | 93 | 1020.4 |
| 20260507151006 | 60 | 277 | 0.0 | 1.0 | 0.00 | 0.05 | 0.00 | 93 | 1020.6 |
| 20260507150006 | 60 | 277 | 1.0 | 3.0 | 0.00 | 0.05 | 0.00 | 93 | 1020.7 |
| 20260507145506 | 60 | 274 | 1.0 | 5.0 | 0.00 | 0.05 | 0.00 | 93 | 1020.8 |
| 20260507145005 | 60 | 312 | 1.0 | 5.0 | 0.00 | 0.05 | 0.00 | 93 | 1020.8 |
| 20260507144506 | 60 | 274 | 2.0 | 3.0 | 0.00 | 0.05 | 0.00 | 94 | 1020.9 |
| 20260507143005 | 60 | 28 | 1.0 | 3.0 | 0.00 | 0.05 | 0.00 | 94 | 1021.1 |
| 20260507142505 | 60 | 21 | 1.0 | 2.0 | 0.00 | 0.05 | 0.00 | 95 | 1021.2 |
| 20260507142005 | 60 | 51 | 1.0 | 2.0 | 0.00 | 0.05 | 0.00 | 95 | 1021.2 |
| 20260507141007 | 60 | 50 | 0.0 | 2.0 | 0.00 | 0.05 | 0.00 | 95 | 1021.2 |
| 20260507140005 | 59 | 84 | 0.0 | 2.0 | 0.00 | 0.05 | 0.00 | 95 | 1021.2 |
| 20260507135505 | 59 | 103 | 0.0 | 1.0 | 0.00 | 0.05 | 0.00 | 95 | 1021.3 |
| 20260507135005 | 59 | 104 | 0.0 | 2.0 | 0.00 | 0.05 | 0.00 | 94 | 1021.4 |
| 20260507133504 | 58 | 133 | 1.0 | 2.0 | 0.00 | 0.05 | 0.00 | 94 | 1021.4 |
| 20260507133005 | 58 | 133 | 1.0 | 2.0 | 0.00 | 0.05 | 0.00 | 94 | 1021.4 |
| 20260507132505 | 59 | 133 | 1.0 | 2.0 | 0.00 | 0.05 | 0.00 | 94 | 1021.6 |
| 20260507132004 | 59 | 133 | 1.0 | 2.0 | 0.00 | 0.05 | 0.00 | 94 | 1021.6 |
| 20260507131504 | 59 | 133 | 1.0 | 2.0 | 0.00 | 0.05 | 0.00 | 94 | 1021.7 |
| 20260507131005 | 59 | 133 | 1.0 | 2.0 | 0.00 | 0.05 | 0.00 | 93 | 1021.7 |
| 20260507130005 | 59 | 129 | 1.0 | 2.0 | 0.00 | 0.05 | 0.00 | 93 | 1021.7 |
| 20260507125508 | 59 | 139 | 1.0 | 2.0 | 0.02 | 0.05 | 0.00 | 93 | 1021.8 |
| 20260507124005 | 59 | 152 | 1.0 | 3.0 | 0.02 | 0.05 | 0.00 | 93 | 1022.0 |
| 20260507123504 | 59 | 143 | 2.0 | 3.0 | 0.02 | 0.05 | 0.00 | 93 | 1022.2 |
| 20260507123005 | 59 | 148 | 2.0 | 3.0 | 0.02 | 0.05 | 0.00 | 93 | 1022.2 |
| 20260507122504 | 59 | 139 | 1.0 | 2.0 | 0.02 | 0.05 | 0.00 | 93 | 1022.3 |
| 20260507122005 | 59 | 176 | 1.0 | 3.0 | 0.02 | 0.05 | 0.00 | 93 | 1022.3 |
| 20260507121504 | 59 | 148 | 2.0 | 3.0 | 0.02 | 0.05 | 0.00 | 93 | 1022.3 |
| 20260507121005 | 59 | 175 | 2.0 | 3.0 | 0.00 | 0.05 | 0.02 | 93 | 1022.3 |
| 20260507120006 | 59 | 140 | 2.0 | 3.0 | 0.00 | 0.22 | 0.00 | 93 | 1022.4 |
| 20260507115505 | 59 | 162 | 2.0 | 3.0 | 0.00 | 0.22 | 0.02 | 93 | 1022.4 |
| 20260507115005 | 58 | 147 | 2.0 | 3.0 | 0.00 | 0.22 | 0.02 | 93 | 1022.5 |
| 20260507114505 | 58 | 152 | 2.0 | 3.0 | 0.00 | 0.22 | 0.02 | 93 | 1022.5 |
| 20260507114005 | 58 | 152 | 2.0 | 3.0 | 0.00 | 0.22 | 0.02 | 93 | 1022.6 |
| 20260507111506 | 58 | 150 | 2.0 | 3.0 | 0.00 | 0.22 | 0.02 | 93 | 1022.8 |
| 20260507111005 | 58 | 149 | 2.0 | 3.0 | 0.00 | 0.22 | 0.02 | 93 | 1022.8 |
| 20260507110005 | 58 | 150 | 2.0 | 3.0 | 0.00 | 0.22 | 0.02 | 93 | 1022.8 |
| 20260507105505 | 58 | 146 | 2.0 | 3.0 | 0.00 | 0.22 | 0.02 | 93 | 1022.8 |
| 20260507105005 | 58 | 146 | 2.0 | 3.0 | 0.00 | 0.22 | 0.02 | 93 | 1022.8 |
| 20260507104505 | 58 | 146 | 2.0 | 3.0 | 0.00 | 0.22 | 0.02 | 93 | 1022.9 |
| 20260507104005 | 58 | 146 | 2.0 | 3.0 | 0.00 | 0.22 | 0.02 | 93 | 1022.9 |
| 20260507103505 | 58 | 145 | 2.0 | 3.0 | 0.00 | 0.22 | 0.02 | 93 | 1022.9 |
| 20260507103005 | 58 | 143 | 2.0 | 2.0 | 0.00 | 0.22 | 0.02 | 93 | 1022.9 |
| 20260507102504 | 57 | 143 | 1.0 | 2.0 | 0.00 | 0.22 | 0.02 | 93 | 1022.9 |
| 20260507102007 | 58 | 143 | 1.0 | 2.0 | 0.00 | 0.22 | 0.02 | 93 | 1022.9 |
| 20260507100005 | 57 | 137 | 1.0 | 2.0 | 0.00 | 0.22 | 0.02 | 93 | 1023.0 |
| 20260507095504 | 57 | 137 | 1.0 | 3.0 | 0.00 | 0.22 | 0.02 | 93 | 1023.1 |
| 20260507095004 | 57 | 145 | 2.0 | 3.0 | 0.00 | 0.22 | 0.02 | 93 | 1023.2 |
| 20260507094504 | 57 | 146 | 2.0 | 3.0 | 0.00 | 0.22 | 0.02 | 93 | 1023.3 |
| 20260507094005 | 57 | 149 | 2.0 | 3.0 | 0.00 | 0.22 | 0.02 | 93 | 1023.3 |
| 20260507093504 | 57 | 149 | 2.0 | 3.0 | 0.00 | 0.22 | 0.02 | 93 | 1023.3 |
| 20260507093004 | 57 | 149 | 2.0 | 3.0 | 0.00 | 0.22 | 0.02 | 93 | 1023.3 |
| 20260507092504 | 57 | 144 | 2.0 | 3.0 | 0.00 | 0.22 | 0.02 | 92 | 1023.4 |
| 20260507092005 | 57 | 155 | 2.0 | 3.0 | 0.00 | 0.22 | 0.02 | 92 | 1023.4 |
| 20260507091504 | 57 | 151 | 2.0 | 3.0 | 0.00 | 0.22 | 0.02 | 92 | 1023.4 |
| 20260507091004 | 57 | 147 | 2.0 | 3.0 | 0.00 | 0.22 | 0.02 | 92 | 1023.5 |
| 20260507090006 | 57 | 150 | 2.0 | 3.0 | 0.00 | 0.22 | 0.02 | 92 | 1023.4 |
| 20260507085005 | 57 | 145 | 2.0 | 3.0 | 0.00 | 0.22 | 0.02 | 92 | 1023.3 |
| 20260507084005 | 57 | 152 | 2.0 | 2.0 | 0.00 | 0.23 | 0.02 | 92 | 1023.3 |
| 20260507083504 | 57 | 152 | 1.0 | 2.0 | 0.00 | 0.24 | 0.02 | 92 | 1023.3 |
| 20260507083006 | 57 | 152 | 1.0 | 2.0 | 0.00 | 0.24 | 0.02 | 92 | 1023.3 |
| 20260507082507 | 58 | 152 | 1.0 | 2.0 | 0.00 | 0.24 | 0.02 | 92 | 1023.3 |
| 20260507082006 | 58 | 152 | 1.0 | 2.0 | 0.00 | 0.24 | 0.02 | 92 | 1023.4 |
| 20260507081506 | 58 | 152 | 1.0 | 2.0 | 0.00 | 0.24 | 0.02 | 92 | 1023.4 |
| 20260507081007 | 58 | 152 | 1.0 | 2.0 | 0.00 | 0.24 | 0.02 | 92 | 1023.5 |
| 20260507080006 | 58 | 152 | 1.0 | 1.0 | 0.00 | 0.24 | 0.02 | 91 | 1023.6 |
| 20260507075506 | 58 | 152 | 0.0 | 2.0 | 0.00 | 0.24 | 0.02 | 91 | 1023.5 |
| 20260507075006 | 58 | 152 | 0.0 | 2.0 | 0.00 | 0.24 | 0.02 | 91 | 1023.5 |
| 20260507074506 | 58 | 152 | 1.0 | 2.0 | 0.00 | 0.24 | 0.02 | 91 | 1023.5 |
| 20260507074006 | 58 | 152 | 1.0 | 2.0 | 0.00 | 0.24 | 0.02 | 90 | 1023.4 |
| 20260507073506 | 59 | 152 | 1.0 | 2.0 | 0.00 | 0.24 | 0.02 | 90 | 1023.5 |
| 20260507072506 | 59 | 152 | 1.0 | 2.0 | 0.00 | 0.24 | 0.02 | 90 | 1023.5 |
| 20260507072006 | 59 | 152 | 1.0 | 2.0 | 0.00 | 0.24 | 0.02 | 90 | 1023.6 |
| 20260507071506 | 59 | 152 | 1.0 | 2.0 | 0.00 | 0.24 | 0.02 | 90 | 1023.5 |
| 20260507070010 | 59 | 145 | 1.0 | 2.0 | 0.00 | 0.24 | 0.02 | 90 | 1023.4 |
| 20260507065505 | 59 | 149 | 1.0 | 2.0 | 0.00 | 0.24 | 0.02 | 89 | 1023.4 |
| 20260507065005 | 59 | 125 | 1.0 | 2.0 | 0.00 | 0.24 | 0.02 | 89 | 1023.4 |
| 20260507064505 | 59 | 125 | 1.0 | 2.0 | 0.00 | 0.24 | 0.02 | 89 | 1023.4 |
| 20260507064006 | 59 | 125 | 1.0 | 2.0 | 0.00 | 0.24 | 0.02 | 89 | 1023.4 |
| 20260507063506 | 60 | 125 | 1.0 | 2.0 | 0.00 | 0.24 | 0.02 | 89 | 1023.4 |
| 20260507062506 | 60 | 125 | 1.0 | 2.0 | 0.00 | 0.24 | 0.02 | 88 | 1023.4 |
| 20260507061506 | 60 | 63 | 1.0 | 1.0 | 0.00 | 0.24 | 0.02 | 88 | 1023.4 |
| 20260507061006 | 60 | 36 | 1.0 | 1.0 | 0.00 | 0.24 | 0.02 | 88 | 1023.5 |
| 20260507060006 | 60 | 36 | 1.0 | 1.0 | 0.00 | 0.24 | 0.02 | 87 | 1023.5 |
| 20260507055506 | 61 | 36 | 0.0 | 1.0 | 0.00 | 0.24 | 0.02 | 87 | 1023.5 |
| 20260507055006 | 61 | 36 | 0.0 | 1.0 | 0.00 | 0.24 | 0.02 | 86 | 1023.5 |
| 20260507054506 | 61 | 36 | 0.0 | 1.0 | 0.00 | 0.24 | 0.02 | 86 | 1023.5 |
| 20260507054005 | 61 | 36 | 0.0 | 1.0 | 0.00 | 0.24 | 0.02 | 85 | 1023.5 |
| 20260507053006 | 61 | 36 | 0.0 | 1.0 | 0.00 | 0.24 | 0.02 | 85 | 1023.5 |
| 20260507052506 | 62 | 36 | 0.0 | 1.0 | 0.00 | 0.24 | 0.02 | 84 | 1023.5 |
| 20260507052006 | 62 | 36 | 0.0 | 1.0 | 0.00 | 0.24 | 0.02 | 84 | 1023.5 |
| 20260507051506 | 62 | 36 | 0.0 | 1.0 | 0.00 | 0.24 | 0.02 | 83 | 1023.5 |
| 20260507051006 | 62 | 36 | 0.0 | 2.0 | 0.00 | 0.24 | 0.02 | 83 | 1023.6 |
| 20260507050006 | 63 | 21 | 1.0 | 2.0 | 0.00 | 0.24 | 0.02 | 82 | 1023.6 |
| 20260507045506 | 63 | 28 | 0.0 | 3.0 | 0.00 | 0.24 | 0.02 | 81 | 1023.6 |
| 20260507045006 | 64 | 13 | 1.0 | 3.0 | 0.00 | 0.24 | 0.02 | 80 | 1023.7 |
| 20260507044506 | 64 | 18 | 2.0 | 3.0 | 0.00 | 0.24 | 0.02 | 79 | 1023.7 |
| 20260507044006 | 64 | 18 | 2.0 | 3.0 | 0.00 | 0.24 | 0.02 | 79 | 1023.7 |
| 20260507043506 | 64 | 17 | 2.0 | 5.0 | 0.00 | 0.24 | 0.02 | 78 | 1023.8 |
| 20260507042506 | 65 | 0 | 2.0 | 6.0 | 0.00 | 0.24 | 0.02 | 77 | 1023.9 |
| 20260507042006 | 66 | 359 | 3.0 | 6.0 | 0.00 | 0.24 | 0.02 | 77 | 1023.9 |
| 20260507041506 | 66 | 4 | 2.0 | 6.0 | 0.00 | 0.24 | 0.02 | 77 | 1023.9 |
| 20260507041006 | 66 | 28 | 3.0 | 5.0 | 0.00 | 0.24 | 0.02 | 77 | 1023.9 |
| 20260507040006 | 66 | 24 | 3.0 | 7.0 | 0.00 | 0.24 | 0.02 | 77 | 1023.9 |
| 20260507035506 | 66 | 0 | 3.0 | 6.0 | 0.00 | 0.24 | 0.02 | 77 | 1024.2 |
| 20260507035006 | 65 | 8 | 2.0 | 6.0 | 0.00 | 0.24 | 0.02 | 78 | 1024.3 |
| 20260507034506 | 65 | 14 | 3.0 | 7.0 | 0.00 | 0.24 | 0.02 | 77 | 1024.3 |
| 20260507034006 | 65 | 341 | 2.0 | 7.0 | 0.00 | 0.24 | 0.02 | 76 | 1024.4 |
| 20260507033506 | 65 | 2 | 3.0 | 9.0 | 0.00 | 0.24 | 0.02 | 76 | 1024.4 |
| 20260507032506 | 65 | 348 | 2.0 | 9.0 | 0.00 | 0.24 | 0.02 | 76 | 1024.4 |
| 20260507032006 | 66 | 29 | 2.0 | 12.0 | 0.00 | 0.24 | 0.02 | 75 | 1024.4 |
| 20260507031506 | 66 | 1 | 3.0 | 12.0 | 0.00 | 0.24 | 0.02 | 74 | 1024.4 |
| 20260507031005 | 66 | 3 | 3.0 | 10.0 | 0.00 | 0.24 | 0.02 | 75 | 1024.4 |
| 20260507025506 | 67 | 0 | 2.0 | 6.0 | 0.00 | 0.24 | 0.02 | 74 | 1024.4 |
| 20260507025005 | 67 | 326 | 2.0 | 7.0 | 0.00 | 0.24 | 0.02 | 73 | 1024.4 |
| 20260507024506 | 68 | 16 | 4.0 | 7.0 | 0.00 | 0.24 | 0.02 | 72 | 1024.4 |
| 20260507023505 | 68 | 332 | 3.0 | 7.0 | 0.00 | 0.24 | 0.02 | 75 | 1024.4 |
| 20260507023006 | 68 | 343 | 3.0 | 10.0 | 0.00 | 0.24 | 0.02 | 74 | 1024.4 |
| 20260507022506 | 68 | 9 | 3.0 | 10.0 | 0.00 | 0.24 | 0.02 | 73 | 1024.4 |
| 20260507022005 | 69 | 344 | 2.0 | 6.0 | 0.00 | 0.24 | 0.02 | 73 | 1024.4 |
| 20260507021505 | 69 | 2 | 3.0 | 7.0 | 0.00 | 0.24 | 0.02 | 72 | 1024.4 |
| 20260507021005 | 69 | 5 | 2.0 | 8.0 | 0.00 | 0.24 | 0.02 | 73 | 1024.4 |
| 20260507020006 | 68 | 313 | 4.0 | 8.0 | 0.00 | 0.24 | 0.02 | 73 | 1024.5 |
| 20260507015506 | 68 | 355 | 3.0 | 7.0 | 0.00 | 0.24 | 0.02 | 74 | 1024.5 |
| 20260507014506 | 67 | 17 | 4.0 | 12.0 | 0.00 | 0.24 | 0.02 | 75 | 1024.5 |
| 20260507014005 | 67 | 3 | 4.0 | 8.0 | 0.00 | 0.24 | 0.02 | 76 | 1024.6 |
| 20260507013505 | 68 | 12 | 4.0 | 12.0 | 0.00 | 0.24 | 0.02 | 74 | 1024.8 |
| 20260507013006 | 68 | 356 | 3.0 | 12.0 | 0.00 | 0.24 | 0.02 | 75 | 1024.9 |
| 20260507012006 | 68 | 317 | 3.0 | 9.0 | 0.00 | 0.24 | 0.02 | 79 | 1024.8 |
| 20260507011505 | 67 | 326 | 5.0 | 10.0 | 0.00 | 0.24 | 0.02 | 78 | 1024.9 |
| 20260507011006 | 67 | 5 | 2.0 | 10.0 | 0.00 | 0.24 | 0.02 | 80 | 1024.9 |
| 20260507010005 | 67 | 359 | 5.0 | 13.0 | 0.00 | 0.24 | 0.02 | 79 | 1024.9 |
| 20260507005506 | 68 | 1 | 5.0 | 13.0 | 0.00 | 0.24 | 0.02 | 76 | 1024.9 |
| 20260507005005 | 68 | 2 | 2.0 | 9.0 | 0.00 | 0.24 | 0.02 | 79 | 1025.0 |
| 20260507004505 | 68 | 7 | 2.0 | 14.0 | 0.00 | 0.24 | 0.02 | 80 | 1025.0 |
| 20260507004005 | 67 | 6 | 4.0 | 14.0 | 0.00 | 0.24 | 0.02 | 80 | 1025.1 |
| 20260507003505 | 67 | 9 | 3.0 | 14.0 | 0.00 | 0.24 | 0.02 | 81 | 1025.1 |
| 20260507003005 | 67 | 26 | 3.0 | 13.0 | 0.00 | 0.24 | 0.02 | 81 | 1025.1 |
| 20260507002506 | 67 | 18 | 7.0 | 15.0 | 0.00 | 0.24 | 0.02 | 80 | 1025.1 |
| 20260507002005 | 67 | 34 | 3.0 | 15.0 | 0.00 | 0.24 | 0.02 | 81 | 1025.1 |
| 20260507001505 | 67 | 10 | 5.0 | 15.0 | 0.00 | 0.24 | 0.02 | 81 | 1025.2 |
| 20260507001005 | 67 | 4 | 3.0 | 13.0 | 0.00 | 0.24 | 0.02 | 81 | 1025.4 |
| 20260507000005 | 68 | 26 | 3.0 | 14.0 | 0.00 | 0.24 | 0.02 | 82 | 1025.4 |